createdAt,value
2023-02-07T00:01:33.976Z,80267.97
2023-02-07T00:04:01.887Z,80267.97
2023-02-07T00:06:32.445Z,80263.91
2023-02-07T00:09:03.208Z,80261.88
2023-02-07T00:11:30.737Z,80263.91
2023-02-07T00:13:58.965Z,80267.97
2023-02-07T00:16:28.005Z,80255.78
2023-02-07T00:18:56.068Z,80251.72
2023-02-07T00:21:26.018Z,80253.75
2023-02-07T00:23:54.010Z,80247.69
2023-02-07T00:26:23.153Z,80243.63
2023-02-07T00:28:52.351Z,80237.53
2023-02-07T00:31:25.226Z,80235.50
2023-02-07T00:33:55.367Z,80239.56
2023-02-07T00:36:24.270Z,80237.53
2023-02-07T00:38:51.690Z,80231.44
2023-02-07T00:41:20.028Z,80223.31
2023-02-07T00:43:48.148Z,80217.22
2023-02-07T00:46:16.415Z,80219.25
2023-02-07T00:48:44.177Z,80215.22
2023-02-07T00:51:13.748Z,80223.31
2023-02-07T00:53:41.120Z,80215.22
2023-02-07T00:56:09.124Z,80207.09
2023-02-07T00:58:36.484Z,80196.94
2023-02-07T01:01:05.006Z,80178.69
2023-02-07T01:03:33.356Z,80182.75
2023-02-07T01:06:00.844Z,80178.69
2023-02-07T01:08:27.901Z,80188.81
2023-02-07T01:10:55.600Z,80203.03
2023-02-07T01:13:22.506Z,80194.91
2023-02-07T01:15:50.296Z,80198.97
2023-02-07T01:18:17.617Z,80198.97
2023-02-07T01:20:45.030Z,80198.97
2023-02-07T01:23:13.104Z,80188.81
2023-02-07T01:25:41.573Z,80180.72
2023-02-07T01:28:08.649Z,80170.56
2023-02-07T01:30:36.084Z,80188.81
2023-02-07T01:33:03.119Z,80188.81
2023-02-07T01:35:30.542Z,80190.84
2023-02-07T01:38:02.649Z,80174.63
2023-02-07T01:40:31.053Z,80166.50
2023-02-07T01:42:59.265Z,80182.75
2023-02-07T01:45:33.017Z,80174.63
2023-02-07T01:48:03.547Z,80178.69
2023-02-07T01:50:31.837Z,80172.59
2023-02-07T01:53:02.466Z,80170.56
2023-02-07T01:55:34.002Z,80162.44
2023-02-07T01:58:04.395Z,80162.44
2023-02-07T02:00:31.813Z,80170.56
2023-02-07T02:02:59.466Z,80162.44
2023-02-07T02:05:30.573Z,80170.56
2023-02-07T02:07:57.716Z,80174.63
2023-02-07T02:10:47.359Z,80160.41
2023-02-07T02:13:53.104Z,80158.38
2023-02-07T02:16:42.701Z,80150.28
2023-02-07T02:19:23.667Z,80152.31
2023-02-07T02:22:48.426Z,80154.31
2023-02-07T02:25:53.968Z,80142.16
2023-02-07T02:28:39.892Z,80154.31
2023-02-07T02:31:39.083Z,80142.16
2023-02-07T02:34:27.774Z,80132.00
2023-02-07T02:37:00.786Z,80125.91
2023-02-07T02:39:45.343Z,80123.88
2023-02-07T02:42:22.678Z,80121.88
2023-02-07T02:45:01.197Z,80129.97
2023-02-07T02:47:30.878Z,80121.88
2023-02-07T02:49:59.389Z,80121.88
2023-02-07T02:52:44.549Z,80117.81
2023-02-07T02:55:22.366Z,80113.75
2023-02-07T02:58:09.575Z,80129.97
2023-02-07T03:00:58.367Z,80123.88
2023-02-07T03:03:54.996Z,80121.88
2023-02-07T03:06:42.173Z,80109.69
2023-02-07T03:09:40.124Z,80113.75
2023-02-07T03:12:20.394Z,80109.69
2023-02-07T03:14:57.458Z,80101.56
2023-02-07T03:17:33.294Z,80113.75
2023-02-07T03:20:19.640Z,80097.50
2023-02-07T03:22:48.701Z,80091.44
2023-02-07T03:25:17.656Z,80089.41
2023-02-07T03:27:47.684Z,80087.38
2023-02-07T03:30:18.734Z,80083.31
2023-02-07T03:32:51.760Z,80077.22
2023-02-07T03:35:32.085Z,80073.16
2023-02-07T03:38:02.330Z,80065.03
2023-02-07T03:40:35.950Z,80061.00
2023-02-07T03:43:08.412Z,80058.97
2023-02-07T03:45:36.152Z,80052.88
2023-02-07T03:48:03.637Z,80056.94
2023-02-07T03:50:30.656Z,80040.69
2023-02-07T03:52:57.840Z,80032.59
2023-02-07T03:55:24.826Z,80065.03
2023-02-07T03:57:51.984Z,80040.69
2023-02-07T04:00:19.342Z,80044.75
2023-02-07T04:02:46.535Z,80032.59
2023-02-07T04:05:13.799Z,80036.63
2023-02-07T04:07:41.070Z,80030.56
2023-02-07T04:10:10.129Z,80028.53
2023-02-07T04:12:37.923Z,80012.28
2023-02-07T04:15:06.048Z,80014.31
2023-02-07T04:17:33.917Z,80008.22
2023-02-07T04:20:01.817Z,80010.25
2023-02-07T04:22:29.794Z,80000.13
2023-02-07T04:24:57.277Z,80004.16
2023-02-07T04:27:24.501Z,79992.00
2023-02-07T04:29:51.528Z,79987.94
2023-02-07T04:32:19.153Z,79992.00
2023-02-07T04:34:46.129Z,79985.91
2023-02-07T04:37:13.390Z,79987.94
2023-02-07T04:39:40.293Z,79983.88
2023-02-07T04:42:07.747Z,79987.94
2023-02-07T04:44:34.779Z,79983.88
2023-02-07T04:47:01.987Z,79983.88
2023-02-07T04:49:31.860Z,79981.84
2023-02-07T04:52:01.000Z,79979.81
2023-02-07T04:54:27.902Z,79975.75
2023-02-07T04:56:55.079Z,79979.81
2023-02-07T04:59:22.022Z,79971.72
2023-02-07T05:01:49.267Z,79963.59
2023-02-07T05:04:16.159Z,79973.72
2023-02-07T05:06:43.390Z,79979.81
2023-02-07T05:09:10.342Z,79971.72
2023-02-07T05:11:37.636Z,79971.72
2023-02-07T05:14:04.796Z,79971.72
2023-02-07T05:16:32.211Z,79967.66
2023-02-07T05:18:59.101Z,79955.47
2023-02-07T05:21:26.269Z,79963.59
2023-02-07T05:23:53.185Z,79943.31
2023-02-07T05:26:20.370Z,79947.34
2023-02-07T05:28:47.313Z,79951.41
2023-02-07T05:31:14.719Z,79939.25
2023-02-07T05:33:41.652Z,79935.19
2023-02-07T05:36:09.446Z,79931.13
2023-02-07T05:38:36.428Z,79927.06
2023-02-07T05:41:03.685Z,79923.00
2023-02-07T05:43:30.848Z,79914.88
2023-02-07T05:45:58.733Z,79906.78
2023-02-07T05:48:25.995Z,79906.78
2023-02-07T05:50:53.458Z,79910.84
2023-02-07T05:53:20.520Z,79906.78
2023-02-07T05:55:51.404Z,79902.72
2023-02-07T05:58:18.444Z,79902.72
2023-02-07T06:00:45.685Z,79902.72
2023-02-07T06:03:12.702Z,79910.84
2023-02-07T06:05:40.631Z,79898.66
2023-02-07T06:08:07.762Z,79894.59
2023-02-07T06:10:34.939Z,79890.53
2023-02-07T06:13:01.834Z,79890.53
2023-02-07T06:15:29.167Z,79866.19
2023-02-07T06:18:14.484Z,79860.09
2023-02-07T06:20:41.684Z,79858.06
2023-02-07T06:23:08.546Z,79858.06
2023-02-07T06:25:35.838Z,79862.13
2023-02-07T06:28:02.831Z,79874.31
2023-02-07T06:30:30.160Z,79862.13
2023-02-07T06:32:57.240Z,79878.38
2023-02-07T06:35:25.685Z,79864.16
2023-02-07T06:37:55.012Z,79854.03
2023-02-07T06:40:22.517Z,79849.97
2023-02-07T06:42:49.460Z,79837.78
2023-02-07T06:45:16.857Z,79849.97
2023-02-07T06:47:43.882Z,79841.84
2023-02-07T06:50:11.165Z,79833.72
2023-02-07T06:52:38.080Z,79845.91
2023-02-07T06:55:05.597Z,79833.72
2023-02-07T06:57:32.474Z,79829.66
2023-02-07T06:59:59.884Z,79825.63
2023-02-07T07:02:26.835Z,79841.84
2023-02-07T07:04:54.186Z,79833.72
2023-02-07T07:07:21.254Z,79817.50
2023-02-07T07:09:48.501Z,79813.44
2023-02-07T07:12:15.957Z,79825.63
2023-02-07T07:14:43.215Z,79817.50
2023-02-07T07:17:10.125Z,79813.44
2023-02-07T07:19:37.275Z,79813.44
2023-02-07T07:22:04.196Z,79815.47
2023-02-07T07:24:31.403Z,79809.38
2023-02-07T07:26:58.351Z,79809.38
2023-02-07T07:29:25.674Z,79805.31
2023-02-07T07:31:52.655Z,79807.34
2023-02-07T07:34:20.214Z,79807.34
2023-02-07T07:36:48.717Z,79805.31
2023-02-07T07:39:17.150Z,79797.22
2023-02-07T07:41:44.453Z,79789.09
2023-02-07T07:44:18.846Z,79793.16
2023-02-07T07:46:45.931Z,79791.13
2023-02-07T07:49:13.364Z,79793.16
2023-02-07T07:51:40.310Z,79791.13
2023-02-07T07:54:07.598Z,79785.03
2023-02-07T07:56:35.553Z,79785.03
2023-02-07T07:59:06.114Z,79787.06
2023-02-07T08:01:35.933Z,79791.13
2023-02-07T08:04:03.917Z,79793.16
2023-02-07T08:06:31.819Z,79791.13
2023-02-07T08:08:58.985Z,79776.91
2023-02-07T08:11:25.921Z,79776.91
2023-02-07T08:13:53.301Z,79785.03
2023-02-07T08:16:20.294Z,79793.16
2023-02-07T08:18:47.610Z,79785.03
2023-02-07T08:21:14.575Z,79797.22
2023-02-07T08:23:41.861Z,79793.16
2023-02-07T08:26:08.930Z,79789.09
2023-02-07T08:28:36.461Z,79776.91
2023-02-07T08:31:05.365Z,79768.81
2023-02-07T08:33:33.336Z,79764.75
2023-02-07T08:36:00.735Z,79764.75
2023-02-07T08:38:28.022Z,79764.75
2023-02-07T08:40:55.069Z,79764.75
2023-02-07T08:43:22.402Z,79768.81
2023-02-07T08:45:49.585Z,79760.69
2023-02-07T08:48:18.486Z,79760.69
2023-02-07T08:50:45.874Z,79752.56
2023-02-07T08:53:13.084Z,79752.56
2023-02-07T08:55:41.864Z,79748.50
2023-02-07T08:58:09.039Z,79754.59
2023-02-07T09:00:36.658Z,79748.50
2023-02-07T09:03:04.852Z,79756.63
2023-02-07T09:05:35.278Z,79740.41
2023-02-07T09:08:03.392Z,79746.47
2023-02-07T09:10:30.489Z,79744.44
2023-02-07T09:12:57.872Z,79744.44
2023-02-07T09:15:24.976Z,79732.28
2023-02-07T09:17:52.404Z,79728.22
2023-02-07T09:20:19.501Z,79736.34
2023-02-07T09:23:05.397Z,79732.28
2023-02-07T09:25:32.480Z,79732.28
2023-02-07T09:27:59.942Z,79724.16
2023-02-07T09:30:27.239Z,79726.19
2023-02-07T09:32:54.862Z,79720.09
2023-02-07T09:35:21.765Z,79712.00
2023-02-07T09:37:50.163Z,79732.28
2023-02-07T09:40:19.615Z,79707.94
2023-02-07T09:42:55.796Z,79699.81
2023-02-07T09:45:31.459Z,79689.66
2023-02-07T09:48:12.393Z,79679.53
2023-02-07T09:50:54.580Z,79671.41
2023-02-07T09:53:59.946Z,79673.44
2023-02-07T09:56:30.071Z,79663.28
2023-02-07T09:59:15.345Z,79659.25
2023-02-07T10:01:50.412Z,79655.19
2023-02-07T10:04:24.608Z,79659.25
2023-02-07T10:06:57.195Z,79655.19
2023-02-07T10:09:30.172Z,79655.19
2023-02-07T10:12:02.651Z,79657.22
2023-02-07T10:14:58.654Z,79661.28
2023-02-07T10:17:31.786Z,79655.19
2023-02-07T10:20:01.887Z,79634.88
2023-02-07T10:23:01.908Z,79636.91
2023-02-07T10:25:41.551Z,79655.19
2023-02-07T10:28:14.576Z,79659.25
2023-02-07T10:30:52.562Z,79659.25
2023-02-07T10:33:30.594Z,79665.31
2023-02-07T10:36:03.513Z,79647.06
2023-02-07T10:38:42.189Z,79630.84
2023-02-07T10:41:17.396Z,79622.72
2023-02-07T10:43:47.191Z,79614.59
2023-02-07T10:46:20.723Z,79620.69
2023-02-07T10:48:48.571Z,79616.63
2023-02-07T10:51:26.663Z,79616.63
2023-02-07T10:54:20.904Z,79594.31
2023-02-07T10:56:57.797Z,79594.31
2023-02-07T10:59:48.078Z,79584.16
2023-02-07T11:02:31.846Z,79574.03
2023-02-07T11:05:01.940Z,79576.06
2023-02-07T11:07:39.397Z,79578.09
2023-02-07T11:10:23.516Z,79574.03
2023-02-07T11:12:56.462Z,79578.09
2023-02-07T11:15:31.925Z,79586.19
2023-02-07T11:17:59.226Z,79582.13
2023-02-07T11:20:34.159Z,79557.78
2023-02-07T11:23:06.844Z,79545.63
2023-02-07T11:25:40.920Z,79545.63
2023-02-07T11:28:35.675Z,79537.50
2023-02-07T11:31:10.234Z,79533.44
2023-02-07T11:33:37.952Z,79533.44
2023-02-07T11:36:28.505Z,79535.47
2023-02-07T11:38:58.642Z,79513.16
2023-02-07T11:41:31.534Z,79529.41
2023-02-07T11:44:14.536Z,79521.28
2023-02-07T11:46:46.553Z,79517.22
2023-02-07T11:49:25.846Z,79521.28
2023-02-07T11:51:55.283Z,79541.56
2023-02-07T11:54:23.394Z,79509.09
2023-02-07T11:56:55.844Z,79503.03
2023-02-07T11:59:26.869Z,79496.94
2023-02-07T12:01:57.291Z,79484.75
2023-02-07T12:04:44.952Z,79476.66
2023-02-07T12:07:19.144Z,79472.59
2023-02-07T12:09:55.549Z,79464.47
2023-02-07T12:12:30.236Z,79468.53
2023-02-07T12:15:04.074Z,79472.59
2023-02-07T12:17:40.194Z,79468.53
2023-02-07T12:20:21.695Z,79444.19
2023-02-07T12:23:04.866Z,79456.34
2023-02-07T12:25:52.533Z,79440.13
2023-02-07T12:28:40.727Z,79464.47
2023-02-07T12:31:27.576Z,79464.47
2023-02-07T12:34:04.628Z,79478.66
2023-02-07T12:36:39.451Z,79488.81
2023-02-07T12:39:39.654Z,79488.81
2023-02-07T12:42:34.227Z,79496.94
2023-02-07T12:45:03.278Z,79492.88
2023-02-07T12:47:49.021Z,79496.94
2023-02-07T12:50:44.012Z,79517.22
2023-02-07T12:53:38.711Z,79521.28
2023-02-07T12:56:17.495Z,79521.28
2023-02-07T12:59:15.461Z,79521.28
2023-02-07T13:01:50.258Z,79513.16
2023-02-07T13:04:20.775Z,79519.25
2023-02-07T13:07:18.561Z,79529.41
2023-02-07T13:10:22.157Z,79541.56
2023-02-07T13:13:26.620Z,79537.50
2023-02-07T13:16:06.469Z,79545.63
2023-02-07T13:18:51.289Z,79537.50
2023-02-07T13:21:44.242Z,79545.63
2023-02-07T13:24:15.492Z,79545.63
2023-02-07T13:26:48.790Z,79529.41
2023-02-07T13:29:17.033Z,79545.63
2023-02-07T13:31:53.405Z,79541.56
2023-02-07T13:34:24.957Z,79533.44
2023-02-07T13:36:52.803Z,79541.56
2023-02-07T13:39:55.115Z,79543.59
2023-02-07T13:42:37.308Z,79541.56
2023-02-07T13:45:13.426Z,79541.56
2023-02-07T13:48:03.146Z,79541.56
2023-02-07T13:51:00.908Z,79549.69
2023-02-07T13:53:38.856Z,79553.75
2023-02-07T13:56:31.323Z,79553.75
2023-02-07T13:59:19.865Z,79553.75
2023-02-07T14:01:51.543Z,79549.69
2023-02-07T14:04:20.033Z,79553.75
2023-02-07T14:06:52.922Z,79553.75
2023-02-07T14:09:32.687Z,79561.84
2023-02-07T14:12:04.711Z,79557.78
2023-02-07T14:14:38.136Z,79561.84
2023-02-07T14:17:13.829Z,79569.97
2023-02-07T14:19:41.149Z,79576.06
2023-02-07T14:22:27.059Z,79586.19
2023-02-07T14:25:03.533Z,79578.09
2023-02-07T14:27:39.284Z,79614.59
2023-02-07T14:30:14.442Z,79590.25
2023-02-07T14:33:03.446Z,79594.31
2023-02-07T14:35:34.475Z,79596.34
2023-02-07T14:38:07.534Z,79602.44
2023-02-07T14:41:01.861Z,79614.59
2023-02-07T14:43:41.448Z,79610.53
2023-02-07T14:46:16.717Z,79610.53
2023-02-07T14:48:49.052Z,79606.50
2023-02-07T14:51:24.969Z,79614.59
2023-02-07T14:54:07.298Z,79643.00
2023-02-07T14:56:49.586Z,79634.88
2023-02-07T14:59:42.860Z,79636.91
2023-02-07T15:02:58.893Z,79638.94
2023-02-07T15:05:35.209Z,79663.28
2023-02-07T15:08:02.444Z,79638.94
2023-02-07T15:10:30.913Z,79640.97
2023-02-07T15:12:58.831Z,79640.97
2023-02-07T15:15:34.885Z,79640.97
2023-02-07T15:18:02.757Z,79645.03
2023-02-07T15:20:35.608Z,79661.28
2023-02-07T15:23:07.369Z,79655.19
2023-02-07T15:25:35.349Z,79663.28
2023-02-07T15:28:26.758Z,79667.34
2023-02-07T15:31:06.626Z,79687.66
2023-02-07T15:33:53.891Z,79675.47
2023-02-07T15:36:29.655Z,79667.34
2023-02-07T15:38:58.570Z,79673.44
2023-02-07T15:41:27.305Z,79675.47
2023-02-07T15:44:02.984Z,79667.34
2023-02-07T15:46:53.777Z,79677.50
2023-02-07T15:49:30.574Z,79685.63
2023-02-07T15:52:30.392Z,79695.75
2023-02-07T15:54:59.974Z,79691.69
2023-02-07T15:57:29.530Z,79703.88
2023-02-07T16:00:02.648Z,79697.78
2023-02-07T16:02:43.725Z,79705.91
2023-02-07T16:05:19.642Z,79699.81
2023-02-07T16:07:48.000Z,79716.03
2023-02-07T16:10:30.916Z,79720.09
2023-02-07T16:13:18.352Z,79716.03
2023-02-07T16:16:06.854Z,79707.94
2023-02-07T16:18:42.606Z,79712.00
2023-02-07T16:21:17.284Z,79720.09
2023-02-07T16:23:46.414Z,79720.09
2023-02-07T16:26:17.544Z,79720.09
2023-02-07T16:28:46.625Z,79724.16
2023-02-07T16:31:14.026Z,79732.28
2023-02-07T16:33:41.137Z,79732.28
2023-02-07T16:36:17.581Z,79728.22
2023-02-07T16:38:46.522Z,79738.38
2023-02-07T16:41:35.403Z,79736.34
2023-02-07T16:44:06.945Z,79724.16
2023-02-07T16:46:34.545Z,79736.34
2023-02-07T16:49:01.515Z,79736.34
2023-02-07T16:51:28.692Z,79742.44
2023-02-07T16:53:55.762Z,79752.56
2023-02-07T16:56:27.831Z,79756.63
2023-02-07T16:58:55.137Z,79752.56
2023-02-07T17:01:22.728Z,79756.63
2023-02-07T17:03:50.014Z,79746.47
2023-02-07T17:06:19.858Z,79760.69
2023-02-07T17:08:47.296Z,79756.63
2023-02-07T17:11:19.505Z,79760.69
2023-02-07T17:13:46.535Z,79760.69
2023-02-07T17:16:14.138Z,79756.63
2023-02-07T17:18:41.790Z,79760.69
2023-02-07T17:21:09.299Z,79754.59
2023-02-07T17:23:36.540Z,79776.91
2023-02-07T17:26:05.691Z,79756.63
2023-02-07T17:28:33.003Z,79766.78
2023-02-07T17:31:00.280Z,79776.91
2023-02-07T17:33:27.321Z,79785.03
2023-02-07T17:35:54.632Z,79768.81
2023-02-07T17:38:21.554Z,79780.97
2023-02-07T17:40:48.885Z,79776.91
2023-02-07T17:43:15.908Z,79780.97
2023-02-07T17:45:43.138Z,79780.97
2023-02-07T17:48:11.985Z,79791.13
2023-02-07T17:50:41.279Z,79797.22
2023-02-07T17:53:10.198Z,79797.22
2023-02-07T17:55:38.650Z,79797.22
2023-02-07T17:58:06.092Z,79799.25
2023-02-07T18:00:40.007Z,79805.31
2023-02-07T18:03:07.761Z,79801.25
2023-02-07T18:05:35.603Z,79801.25
2023-02-07T18:08:03.122Z,79813.44
2023-02-07T18:10:35.198Z,79813.44
2023-02-07T18:13:02.549Z,79817.50
2023-02-07T18:15:30.384Z,79809.38
2023-02-07T18:17:58.643Z,79807.34
2023-02-07T18:20:29.723Z,79805.31
2023-02-07T18:22:58.968Z,79809.38
2023-02-07T18:25:49.234Z,79809.38
2023-02-07T18:28:17.258Z,79821.56
2023-02-07T18:30:44.835Z,79813.44
2023-02-07T18:33:13.511Z,79825.63
2023-02-07T18:35:41.134Z,79817.50
2023-02-07T18:38:08.470Z,79823.59
2023-02-07T18:40:35.426Z,79821.56
2023-02-07T18:43:02.616Z,79821.56
2023-02-07T18:45:29.541Z,79815.47
2023-02-07T18:47:56.819Z,79821.56
2023-02-07T18:50:23.744Z,79825.63
2023-02-07T18:52:50.894Z,79827.66
2023-02-07T18:55:17.921Z,79825.63
2023-02-07T18:57:45.121Z,79823.59
2023-02-07T19:00:14.425Z,79833.72
2023-02-07T19:02:41.720Z,79815.47
2023-02-07T19:05:09.374Z,79835.75
2023-02-07T19:07:36.610Z,79841.84
2023-02-07T19:10:04.060Z,79835.75
2023-02-07T19:12:31.488Z,79833.72
2023-02-07T19:15:16.750Z,79829.66
2023-02-07T19:17:43.940Z,79833.72
2023-02-07T19:20:11.261Z,79821.56
2023-02-07T19:22:38.887Z,79829.66
2023-02-07T19:25:06.321Z,79829.66
2023-02-07T19:27:33.947Z,79874.31
2023-02-07T19:30:01.392Z,79845.91
2023-02-07T19:32:29.039Z,79854.03
2023-02-07T19:34:55.908Z,79854.03
2023-02-07T19:37:23.137Z,79858.06
2023-02-07T19:39:50.148Z,79862.13
2023-02-07T19:42:17.383Z,79866.19
2023-02-07T19:44:44.326Z,79858.06
2023-02-07T19:47:11.587Z,79868.22
2023-02-07T19:49:38.795Z,79874.31
2023-02-07T19:52:06.065Z,79882.44
2023-02-07T19:54:33.029Z,79876.34
2023-02-07T19:57:00.284Z,79870.25
2023-02-07T19:59:27.222Z,79870.25
2023-02-07T20:01:54.771Z,79862.13
2023-02-07T20:04:21.764Z,79870.25
2023-02-07T20:06:49.171Z,79878.38
2023-02-07T20:09:16.142Z,79880.41
2023-02-07T20:11:43.424Z,79874.31
2023-02-07T20:14:10.552Z,79878.38
2023-02-07T20:16:39.395Z,79886.47
2023-02-07T20:19:07.782Z,79890.53
2023-02-07T20:21:36.397Z,79886.47
2023-02-07T20:24:03.779Z,79878.38
2023-02-07T20:26:36.579Z,79886.47
2023-02-07T20:29:06.911Z,79886.47
2023-02-07T20:31:34.327Z,79898.66
2023-02-07T20:34:02.337Z,79890.53
2023-02-07T20:36:31.226Z,79886.47
2023-02-07T20:38:59.315Z,79886.47
2023-02-07T20:41:29.553Z,79890.53
2023-02-07T20:43:58.069Z,79882.44
2023-02-07T20:46:26.920Z,79890.53
2023-02-07T20:49:06.034Z,79878.38
2023-02-07T20:51:37.253Z,79882.44
2023-02-07T20:54:06.653Z,79878.38
2023-02-07T20:56:34.957Z,79890.53
2023-02-07T20:59:01.906Z,79898.66
2023-02-07T21:01:31.813Z,79906.78
2023-02-07T21:04:02.097Z,79912.88
2023-02-07T21:06:29.778Z,79914.88
2023-02-07T21:09:00.710Z,79910.84
2023-02-07T21:11:33.866Z,79916.91
2023-02-07T21:14:02.707Z,79914.88
2023-02-07T21:16:33.203Z,79923.00
2023-02-07T21:19:01.124Z,79918.94
2023-02-07T21:21:29.362Z,79918.94
2023-02-07T21:23:57.330Z,79910.84
2023-02-07T21:26:26.696Z,79916.91
2023-02-07T21:28:58.768Z,79914.88
2023-02-07T21:31:27.744Z,79914.88
2023-02-07T21:33:55.289Z,79916.91
2023-02-07T21:36:28.212Z,79916.91
2023-02-07T21:38:57.011Z,79918.94
2023-02-07T21:41:26.090Z,79912.88
2023-02-07T21:43:57.475Z,79923.00
2023-02-07T21:46:28.110Z,79914.88
2023-02-07T21:49:01.559Z,79914.88
2023-02-07T21:51:31.132Z,79914.88
2023-02-07T21:53:59.130Z,79910.84
2023-02-07T21:56:29.187Z,79914.88
2023-02-07T21:59:01.054Z,79931.13
2023-02-07T22:01:29.447Z,79918.94
2023-02-07T22:03:58.888Z,79918.94
2023-02-07T22:06:27.173Z,79927.06
2023-02-07T22:08:57.000Z,79925.03
2023-02-07T22:11:27.681Z,79923.00
2023-02-07T22:13:55.068Z,79927.06
2023-02-07T22:16:24.247Z,79929.09
2023-02-07T22:18:53.471Z,79939.25
2023-02-07T22:21:26.170Z,79935.19
2023-02-07T22:23:53.863Z,79935.19
2023-02-07T22:26:21.881Z,79937.22
2023-02-07T22:28:48.997Z,79933.16
2023-02-07T22:31:23.051Z,79943.31
2023-02-07T22:33:51.808Z,79943.31
2023-02-07T22:36:27.402Z,79955.47
2023-02-07T22:38:55.597Z,79953.44
2023-02-07T22:41:23.355Z,79955.47
2023-02-07T22:43:51.084Z,79955.47
2023-02-07T22:46:21.552Z,79963.59
2023-02-07T22:48:48.684Z,79959.53
2023-02-07T22:51:29.657Z,79963.59
2023-02-07T22:53:59.600Z,79963.59
2023-02-07T22:56:27.862Z,79969.69
2023-02-07T22:58:55.799Z,79971.72
2023-02-07T23:01:34.812Z,79959.53
2023-02-07T23:04:03.862Z,79973.72
2023-02-07T23:06:32.674Z,79967.66
2023-02-07T23:09:00.129Z,79975.75
2023-02-07T23:11:27.589Z,79967.66
2023-02-07T23:13:55.264Z,79979.81
2023-02-07T23:16:25.419Z,79979.81
2023-02-07T23:18:56.458Z,79975.75
2023-02-07T23:21:25.855Z,80024.47
2023-02-07T23:23:53.364Z,79975.75
2023-02-07T23:26:22.956Z,79983.88
2023-02-07T23:28:50.740Z,79975.75
2023-02-07T23:31:20.529Z,79975.75
2023-02-07T23:33:47.894Z,79977.78
2023-02-07T23:36:17.591Z,79979.81
2023-02-07T23:38:46.342Z,79983.88
2023-02-07T23:41:14.323Z,79979.81
2023-02-07T23:43:41.585Z,79983.88
2023-02-07T23:46:09.853Z,79979.81
2023-02-07T23:48:38.592Z,79979.81
2023-02-07T23:51:06.953Z,79979.81
2023-02-07T23:53:34.431Z,79975.75
2023-02-07T23:56:03.268Z,79983.88
2023-02-07T23:58:30.246Z,79983.88
